Annette, Alaska
Current Conditions -  °F | °C
As of 11:43 PM on Thursday 18 Dec 2014 (Local Time) from PANT Reporting Station
Light Rain Light Rain  
Wind Chill:   Ceiling: 1300
Heat Index:   Visibility: 10mi
Dew Point:   Wind: 17mph
Humidity: 93%   Direction: 130°SE
Pressure: 29.33"   Gusts: 25mph
Location:  55.05°N, 131.6°W
Report Text: PANT 190843Z AUTO 13015G22KT 10SM -RA OVC013 05/04 A2933 RMK AO2 P0002 T00500039 TSNO
Loading
Personal Weather Stations






























Interactive Weather Map New forecast layout! Learn more

10-Day Weather Forecast

Advertisements
Track Severe Weather on mobile